createdAt,value
2017-12-10T00:00:39.196Z,100055.14
2017-12-10T00:03:06.679Z,100054.58
2017-12-10T00:05:34.178Z,100040.81
2017-12-10T00:08:01.706Z,100041.35
2017-12-10T00:10:29.207Z,100042.02
2017-12-10T00:12:56.686Z,100038.24
2017-12-10T00:15:24.219Z,100036.94
2017-12-10T00:17:51.715Z,100037.03
2017-12-10T00:20:19.219Z,100037.63
2017-12-10T00:22:46.754Z,100036.91
2017-12-10T00:25:14.271Z,100027.84
2017-12-10T00:27:41.832Z,100028.34
2017-12-10T00:30:09.498Z,100031.81
2017-12-10T00:32:36.992Z,100034.35
2017-12-10T00:35:04.483Z,100029.42
2017-12-10T00:37:32.012Z,100027.44
2017-12-10T00:39:59.495Z,100025.43
2017-12-10T00:42:26.977Z,100022.78
2017-12-10T00:44:54.662Z,100021.62
2017-12-10T00:47:22.147Z,100026.38
2017-12-10T00:49:49.666Z,100025.64
2017-12-10T00:52:17.316Z,100030.85
2017-12-10T00:54:44.875Z,100032.33
2017-12-10T00:57:12.355Z,100027.75
2017-12-10T00:59:39.863Z,100023.61
2017-12-10T01:02:07.451Z,100021.42
2017-12-10T01:04:34.979Z,100017.72
2017-12-10T01:07:02.509Z,100016.59
2017-12-10T01:09:30.022Z,100020.88
2017-12-10T01:11:57.548Z,100016.31
2017-12-10T01:14:25.040Z,100014.02
2017-12-10T01:16:52.536Z,100009.63
2017-12-10T01:19:20.072Z,100008.77
2017-12-10T01:21:47.567Z,100009.83
2017-12-10T01:24:15.042Z,100008.28
2017-12-10T01:26:42.559Z,100015.81
2017-12-10T01:29:10.062Z,100007.73
2017-12-10T01:31:37.558Z,100012.76
2017-12-10T01:34:05.085Z,100000.85
2017-12-10T01:36:32.573Z,99992.27
2017-12-10T01:39:00.149Z,99995.14
2017-12-10T01:41:27.671Z,99985.39
2017-12-10T01:43:55.146Z,99993.87
2017-12-10T01:46:22.651Z,99993.20
2017-12-10T01:48:50.164Z,99995.64
2017-12-10T01:51:17.716Z,99991.44
2017-12-10T01:53:45.201Z,99984.89
2017-12-10T01:56:12.743Z,99989.86
2017-12-10T01:58:40.224Z,99986.88
2017-12-10T02:01:07.703Z,99978.30
2017-12-10T02:03:35.232Z,99978.10
2017-12-10T02:06:02.726Z,99981.53
2017-12-10T02:08:30.203Z,99981.53
2017-12-10T02:10:57.728Z,99970.59
2017-12-10T02:13:25.221Z,99972.33
2017-12-10T02:15:52.710Z,99974.87
2017-12-10T02:18:20.214Z,99969.08
2017-12-10T02:20:47.700Z,99961.35
2017-12-10T02:23:15.183Z,99959.33
2017-12-10T02:25:42.708Z,99954.43
2017-12-10T02:28:10.195Z,99950.30
2017-12-10T02:30:37.695Z,99937.44
2017-12-10T02:33:05.220Z,99941.44
2017-12-10T02:35:32.764Z,99937.30
2017-12-10T02:38:00.324Z,99937.09
2017-12-10T02:40:27.884Z,99928.38
2017-12-10T02:42:55.359Z,99928.30
2017-12-10T02:45:22.907Z,99920.30
2017-12-10T02:47:50.386Z,99914.42
2017-12-10T02:50:17.867Z,99911.72
2017-12-10T02:52:45.401Z,99913.44
2017-12-10T02:55:12.874Z,99907.50
2017-12-10T02:57:40.382Z,99895.27
2017-12-10T03:00:07.891Z,99894.95
2017-12-10T03:02:35.370Z,99898.48
2017-12-10T03:05:02.849Z,99893.22
2017-12-10T03:07:30.368Z,99883.66
2017-12-10T03:09:57.844Z,99881.78
2017-12-10T03:12:25.364Z,99884.63
2017-12-10T03:14:52.887Z,99877.31
2017-12-10T03:17:20.369Z,99877.38
2017-12-10T03:19:47.847Z,99878.55
2017-12-10T03:22:15.364Z,99876.80
2017-12-10T03:24:42.924Z,99878.75
2017-12-10T03:27:10.399Z,99879.58
2017-12-10T03:29:37.942Z,99876.33
2017-12-10T03:32:05.418Z,99872.87
2017-12-10T03:34:32.896Z,99877.59
2017-12-10T03:37:00.423Z,99871.20
2017-12-10T03:39:27.908Z,99857.97
2017-12-10T03:41:55.374Z,99858.38
2017-12-10T03:44:22.901Z,99856.73
2017-12-10T03:46:50.387Z,99851.98
2017-12-10T03:49:17.854Z,99842.76
2017-12-10T03:51:45.386Z,99842.76
2017-12-10T03:54:12.862Z,99837.94
2017-12-10T03:56:40.329Z,99839.27
2017-12-10T03:59:07.863Z,99832.78
2017-12-10T04:01:35.335Z,99837.33
2017-12-10T04:04:02.820Z,99829.95
2017-12-10T04:06:30.354Z,99824.45
2017-12-10T04:08:57.821Z,99830.64
2017-12-10T04:11:25.333Z,99823.33
2017-12-10T04:13:52.880Z,99821.62
2017-12-10T04:16:20.357Z,99818.52
2017-12-10T04:18:47.838Z,99819.20
2017-12-10T04:21:15.347Z,99818.36
2017-12-10T04:23:42.813Z,99822.94
2017-12-10T04:26:10.276Z,99818.87
2017-12-10T04:28:37.776Z,99826.73
2017-12-10T04:31:05.238Z,99824.35
2017-12-10T04:33:32.711Z,99819.91
2017-12-10T04:36:00.332Z,99818.50
2017-12-10T04:38:27.807Z,99815.86
2017-12-10T04:40:55.274Z,99815.43
2017-12-10T04:43:22.785Z,99809.79
2017-12-10T04:45:50.257Z,99808.17
2017-12-10T04:48:17.728Z,99808.28
2017-12-10T04:50:45.273Z,99807.28
2017-12-10T04:53:12.811Z,99803.29
2017-12-10T04:55:40.279Z,99804.70
2017-12-10T04:58:07.780Z,99796.28
2017-12-10T05:00:35.395Z,99798.30
2017-12-10T05:03:02.871Z,99789.13
2017-12-10T05:05:30.410Z,99790.66
2017-12-10T05:07:57.902Z,99786.53
2017-12-10T05:10:25.379Z,99778.33
2017-12-10T05:12:53.087Z,99774.56
2017-12-10T05:15:20.643Z,99761.34
2017-12-10T05:17:48.120Z,99766.61
2017-12-10T05:20:15.629Z,99765.15
2017-12-10T05:22:43.098Z,99754.59
2017-12-10T05:25:10.668Z,99756.51
2017-12-10T05:27:38.176Z,99755.52
2017-12-10T05:30:05.653Z,99755.54
2017-12-10T05:32:33.137Z,99753.00
2017-12-10T05:35:00.651Z,99742.67
2017-12-10T05:37:28.159Z,99736.80
2017-12-10T05:39:55.632Z,99733.16
2017-12-10T05:42:23.203Z,99729.09
2017-12-10T05:44:50.674Z,99732.45
2017-12-10T05:47:18.144Z,99725.17
2017-12-10T05:49:45.658Z,99722.86
2017-12-10T05:52:13.134Z,99719.89
2017-12-10T05:54:40.610Z,99721.94
2017-12-10T05:57:08.122Z,99725.59
2017-12-10T05:59:35.682Z,99705.39
2017-12-10T06:02:03.151Z,99705.97
2017-12-10T06:04:30.674Z,99703.48
2017-12-10T06:06:58.162Z,99701.34
2017-12-10T06:09:25.632Z,99700.55
2017-12-10T06:11:53.143Z,99696.84
2017-12-10T06:14:20.615Z,99701.66
2017-12-10T06:16:48.091Z,99693.18
2017-12-10T06:19:15.608Z,99689.77
2017-12-10T06:21:43.111Z,99679.72
2017-12-10T06:24:10.585Z,99668.68
2017-12-10T06:26:38.107Z,99658.00
2017-12-10T06:29:05.579Z,99649.41
2017-12-10T06:31:33.052Z,99643.95
2017-12-10T06:34:00.552Z,99642.16
2017-12-10T06:36:28.034Z,99638.44
2017-12-10T06:38:55.616Z,99638.93
2017-12-10T06:41:23.108Z,99638.01
2017-12-10T06:43:50.649Z,99632.08
2017-12-10T06:46:18.128Z,99633.34
2017-12-10T06:48:45.602Z,99635.73
2017-12-10T06:51:13.361Z,99626.06
2017-12-10T06:53:40.815Z,99613.44
2017-12-10T06:56:08.324Z,99615.23
2017-12-10T06:58:35.830Z,99604.69
2017-12-10T07:01:03.362Z,99607.95
2017-12-10T07:03:30.838Z,99602.45
2017-12-10T07:05:58.357Z,99606.58
2017-12-10T07:08:25.839Z,99597.77
2017-12-10T07:10:53.310Z,99604.45
2017-12-10T07:13:20.817Z,99596.30
2017-12-10T07:15:48.393Z,99591.59
2017-12-10T07:18:15.869Z,99586.05
2017-12-10T07:20:43.410Z,99579.72
2017-12-10T07:23:10.906Z,99574.67
2017-12-10T07:25:38.414Z,99571.20
2017-12-10T07:28:05.938Z,99568.25
2017-12-10T07:30:33.413Z,99568.67
2017-12-10T07:33:00.882Z,99562.42
2017-12-10T07:35:28.457Z,99552.91
2017-12-10T07:37:55.949Z,99544.30
2017-12-10T07:40:23.424Z,99544.30
2017-12-10T07:42:50.927Z,99534.49
2017-12-10T07:45:18.398Z,99531.38
2017-12-10T07:47:45.870Z,99530.14
2017-12-10T07:50:13.431Z,99519.89
2017-12-10T07:52:40.904Z,99534.90
2017-12-10T07:55:08.386Z,99528.36
2017-12-10T07:57:35.996Z,99519.97
2017-12-10T08:00:03.511Z,99506.07
2017-12-10T08:02:30.975Z,99509.14
2017-12-10T08:04:58.494Z,99507.70
2017-12-10T08:07:25.963Z,99506.07
2017-12-10T08:09:53.439Z,99497.16
2017-12-10T08:12:21.014Z,99494.48
2017-12-10T08:14:48.486Z,99493.50
2017-12-10T08:17:16.047Z,99503.52
2017-12-10T08:19:43.594Z,99497.55
2017-12-10T08:22:11.059Z,99493.31
2017-12-10T08:24:38.534Z,99485.03
2017-12-10T08:27:06.047Z,99480.86
2017-12-10T08:29:33.520Z,99474.31
2017-12-10T08:32:01.000Z,99472.46
2017-12-10T08:34:28.548Z,99474.31
2017-12-10T08:36:56.077Z,99468.47
2017-12-10T08:39:23.555Z,99462.22
2017-12-10T08:41:51.087Z,99466.09
2017-12-10T08:44:18.558Z,99461.47
2017-12-10T08:46:46.029Z,99460.17
2017-12-10T08:49:13.534Z,99443.78
2017-12-10T08:51:41.003Z,99453.33
2017-12-10T08:54:08.497Z,99445.67
2017-12-10T08:56:36.011Z,99442.89
2017-12-10T08:59:03.511Z,99424.44
2017-12-10T09:01:30.984Z,99426.13
2017-12-10T09:03:58.647Z,99424.94
2017-12-10T09:06:26.127Z,99409.37
2017-12-10T09:08:53.606Z,99399.52
2017-12-10T09:11:21.125Z,99396.84
2017-12-10T09:13:48.599Z,99394.58
2017-12-10T09:16:16.201Z,99395.23
2017-12-10T09:18:43.730Z,99383.43
2017-12-10T09:21:11.248Z,99382.21
2017-12-10T09:23:38.715Z,99379.97
2017-12-10T09:26:06.204Z,99380.61
2017-12-10T09:28:33.720Z,99362.72
2017-12-10T09:31:01.240Z,99353.58
2017-12-10T09:33:28.710Z,99351.52
2017-12-10T09:35:56.219Z,99349.67
2017-12-10T09:38:23.738Z,99349.55
2017-12-10T09:40:51.222Z,99346.67
2017-12-10T09:43:18.699Z,99334.66
2017-12-10T09:45:46.213Z,99329.09
2017-12-10T09:48:13.688Z,99327.27
2017-12-10T09:50:41.163Z,99325.72
2017-12-10T09:53:08.670Z,99310.09
2017-12-10T09:55:36.147Z,99313.78
2017-12-10T09:58:03.716Z,99308.36
2017-12-10T10:00:31.271Z,99290.70
2017-12-10T10:02:58.839Z,99281.66
2017-12-10T10:05:26.328Z,99270.99
2017-12-10T10:07:53.838Z,99279.20
2017-12-10T10:10:21.338Z,99265.95
2017-12-10T10:12:48.816Z,99260.01
2017-12-10T10:15:16.351Z,99242.95
2017-12-10T10:17:43.827Z,99231.77
2017-12-10T10:20:11.313Z,99226.32
2017-12-10T10:22:38.832Z,99220.80
2017-12-10T10:25:06.319Z,99207.98
2017-12-10T10:27:33.795Z,99204.40
2017-12-10T10:30:01.374Z,99185.20
2017-12-10T10:32:28.852Z,99179.06
2017-12-10T10:34:56.325Z,99175.45
2017-12-10T10:37:23.833Z,99162.42
2017-12-10T10:39:51.303Z,99152.47
2017-12-10T10:42:18.827Z,99150.84
2017-12-10T10:44:46.345Z,99132.73
2017-12-10T10:47:13.824Z,99129.78
2017-12-10T10:49:41.304Z,99124.87
2017-12-10T10:52:08.828Z,99116.95
2017-12-10T10:54:36.402Z,99110.70
2017-12-10T10:57:03.883Z,99097.55
2017-12-10T10:59:31.400Z,99088.84
2017-12-10T11:01:58.941Z,99085.14
2017-12-10T11:04:26.432Z,99068.41
2017-12-10T11:06:53.958Z,99060.91
2017-12-10T11:09:21.505Z,99053.27
2017-12-10T11:11:48.978Z,99051.94
2017-12-10T11:14:16.496Z,99042.00
2017-12-10T11:16:43.962Z,99036.20
2017-12-10T11:19:11.442Z,99022.36
2017-12-10T11:21:38.947Z,99014.14
2017-12-10T11:24:06.446Z,99010.23
2017-12-10T11:26:34.014Z,99009.61
2017-12-10T11:29:01.594Z,99000.66
2017-12-10T11:31:29.137Z,98995.32
2017-12-10T11:33:56.626Z,98988.80
2017-12-10T11:36:24.127Z,98987.25
2017-12-10T11:38:51.608Z,98972.59
2017-12-10T11:41:19.082Z,98967.98
2017-12-10T11:43:46.595Z,98959.80
2017-12-10T11:46:14.071Z,98940.55
2017-12-10T11:48:41.568Z,98928.16
2017-12-10T11:51:09.355Z,98928.98
2017-12-10T11:53:36.862Z,98917.50
2017-12-10T11:56:04.419Z,98913.47
2017-12-10T11:58:31.900Z,98902.70
2017-12-10T12:00:59.394Z,98893.72
2017-12-10T12:03:26.904Z,98884.33
2017-12-10T12:05:54.368Z,98874.20
2017-12-10T12:08:21.908Z,98855.41
2017-12-10T12:10:49.567Z,98861.92
2017-12-10T12:13:17.052Z,98850.81
2017-12-10T12:15:44.522Z,98846.76
2017-12-10T12:18:12.064Z,98846.03
2017-12-10T12:20:39.536Z,98833.98
2017-12-10T12:23:07.007Z,98834.15
2017-12-10T12:25:34.616Z,98814.81
2017-12-10T12:28:02.091Z,98802.31
2017-12-10T12:30:29.569Z,98800.91
2017-12-10T12:32:57.114Z,98785.58
2017-12-10T12:35:24.595Z,98767.39
2017-12-10T12:37:52.077Z,98766.57
2017-12-10T12:40:19.590Z,98756.67
2017-12-10T12:42:47.068Z,98743.58
2017-12-10T12:45:14.567Z,98735.98
2017-12-10T12:47:42.140Z,98724.29
2017-12-10T12:50:09.707Z,98718.19
2017-12-10T12:52:37.282Z,98717.30
2017-12-10T12:55:04.796Z,98709.30
2017-12-10T12:57:32.271Z,98709.53
2017-12-10T12:59:59.745Z,98709.73
2017-12-10T13:02:27.248Z,98705.91
2017-12-10T13:04:54.719Z,98697.82
2017-12-10T13:07:22.183Z,98684.58
2017-12-10T13:09:49.753Z,98683.03
2017-12-10T13:12:17.223Z,98673.70
2017-12-10T13:14:44.785Z,98676.45
2017-12-10T13:17:12.362Z,98660.70
2017-12-10T13:19:39.899Z,98656.21
2017-12-10T13:22:07.367Z,98646.83
2017-12-10T13:24:34.901Z,98638.23
2017-12-10T13:27:02.482Z,98626.92
2017-12-10T13:29:29.959Z,98619.53
2017-12-10T13:31:57.498Z,98614.16
2017-12-10T13:34:24.981Z,98609.27
2017-12-10T13:36:52.447Z,98592.26
2017-12-10T13:39:19.986Z,98579.34
2017-12-10T13:41:47.471Z,98581.84
2017-12-10T13:44:14.953Z,98555.95
2017-12-10T13:46:42.537Z,98544.08
2017-12-10T13:49:10.011Z,98541.33
2017-12-10T13:51:37.488Z,98526.14
2017-12-10T13:54:04.999Z,98509.94
2017-12-10T13:56:32.475Z,98505.69
2017-12-10T13:58:59.949Z,98500.16
2017-12-10T14:01:27.697Z,98491.67
2017-12-10T14:03:55.173Z,98487.80
2017-12-10T14:06:22.643Z,98481.73
2017-12-10T14:08:50.171Z,98457.48
2017-12-10T14:11:17.656Z,98444.75
2017-12-10T14:13:45.139Z,98447.63
2017-12-10T14:16:12.741Z,98438.90
2017-12-10T14:18:40.222Z,98443.30
2017-12-10T14:21:07.759Z,98445.53
2017-12-10T14:23:35.289Z,98438.90
2017-12-10T14:26:02.764Z,98429.23
2017-12-10T14:28:30.238Z,98421.81
2017-12-10T14:30:57.747Z,98416.29
2017-12-10T14:33:25.224Z,98413.88
2017-12-10T14:35:52.706Z,98411.35
2017-12-10T14:38:20.235Z,98413.42
2017-12-10T14:40:47.736Z,98400.70
2017-12-10T14:43:15.228Z,98387.89
2017-12-10T14:45:42.730Z,98394.75
2017-12-10T14:48:10.210Z,98395.23
2017-12-10T14:50:37.688Z,98386.17
2017-12-10T14:53:05.204Z,98385.78
2017-12-10T14:55:32.688Z,98390.83
2017-12-10T14:58:00.176Z,98397.03
2017-12-10T15:00:27.701Z,98393.94
2017-12-10T15:02:55.175Z,98402.63
2017-12-10T15:05:22.767Z,98398.77
2017-12-10T15:07:50.283Z,98403.66
2017-12-10T15:10:17.759Z,98410.68
2017-12-10T15:12:45.234Z,98402.82
2017-12-10T15:15:12.763Z,98406.94
2017-12-10T15:17:40.241Z,98401.48
2017-12-10T15:20:07.843Z,98396.28
2017-12-10T15:22:35.412Z,98382.64
2017-12-10T15:25:02.891Z,98373.45
2017-12-10T15:27:30.421Z,98337.39
2017-12-10T15:29:57.940Z,98321.00
2017-12-10T15:32:25.412Z,98312.36
2017-12-10T15:34:52.902Z,98311.94
2017-12-10T15:37:20.443Z,98315.42
2017-12-10T15:39:48.019Z,98301.43
2017-12-10T15:42:15.492Z,98286.64
2017-12-10T15:44:42.993Z,98261.54
2017-12-10T15:47:10.559Z,98252.27
2017-12-10T15:49:38.039Z,98245.46
2017-12-10T15:52:05.632Z,98243.75
2017-12-10T15:54:33.131Z,98236.41
2017-12-10T15:57:00.614Z,98242.47
2017-12-10T15:59:28.129Z,98245.20
2017-12-10T16:01:55.595Z,98245.94
2017-12-10T16:04:23.073Z,98238.81
2017-12-10T16:06:50.577Z,98251.72
2017-12-10T16:09:18.113Z,98264.78
2017-12-10T16:11:45.695Z,98283.50
2017-12-10T16:14:13.176Z,98283.64
2017-12-10T16:16:40.651Z,98289.69
2017-12-10T16:19:08.172Z,98288.69
2017-12-10T16:21:35.657Z,98294.28
2017-12-10T16:24:03.188Z,98292.09
2017-12-10T16:26:30.704Z,98290.23
2017-12-10T16:28:58.179Z,98293.37
2017-12-10T16:31:25.653Z,98278.45
2017-12-10T16:33:53.207Z,98272.91
2017-12-10T16:36:20.691Z,98257.18
2017-12-10T16:38:48.158Z,98250.39
2017-12-10T16:41:15.662Z,98234.78
2017-12-10T16:43:43.137Z,98228.87
2017-12-10T16:46:10.623Z,98221.09
2017-12-10T16:48:38.145Z,98222.79
2017-12-10T16:51:05.701Z,98214.41
2017-12-10T16:53:33.179Z,98213.05
2017-12-10T16:56:00.691Z,98202.05
2017-12-10T16:58:28.165Z,98206.73
2017-12-10T17:00:55.678Z,98201.63
2017-12-10T17:03:23.155Z,98199.14
2017-12-10T17:05:50.625Z,98188.16
2017-12-10T17:08:18.123Z,98182.13
2017-12-10T17:10:45.646Z,98171.42
2017-12-10T17:13:13.140Z,98169.04
2017-12-10T17:15:40.689Z,98157.76
2017-12-10T17:18:08.223Z,98149.80
2017-12-10T17:20:35.700Z,98140.56
2017-12-10T17:23:03.180Z,98130.45
2017-12-10T17:25:30.704Z,98124.99
2017-12-10T17:27:58.196Z,98117.67
2017-12-10T17:30:25.670Z,98107.33
2017-12-10T17:32:53.291Z,98105.75
2017-12-10T17:35:20.771Z,98094.86
2017-12-10T17:37:49.101Z,98094.59
2017-12-10T17:40:16.620Z,98081.25
2017-12-10T17:42:44.090Z,98066.96
2017-12-10T17:45:11.741Z,98061.72
2017-12-10T17:47:39.237Z,98053.34
2017-12-10T17:50:06.717Z,98041.19
2017-12-10T17:52:34.282Z,98028.26
2017-12-10T17:55:01.798Z,98026.19
2017-12-10T17:57:29.276Z,98019.86
2017-12-10T17:59:56.762Z,98015.44
2017-12-10T18:02:24.283Z,98001.81
2017-12-10T18:04:51.808Z,98000.22
2017-12-10T18:07:19.347Z,97992.91
2017-12-10T18:09:46.901Z,97990.12
2017-12-10T18:12:14.386Z,97987.05
2017-12-10T18:14:41.862Z,97991.06
2017-12-10T18:17:09.560Z,97982.42
2017-12-10T18:19:37.032Z,97979.72
2017-12-10T18:22:04.545Z,97968.14
2017-12-10T18:24:32.022Z,97967.38
2017-12-10T18:26:59.499Z,97965.03
2017-12-10T18:29:27.052Z,97964.94
2017-12-10T18:31:54.575Z,97966.52
2017-12-10T18:34:22.068Z,97956.42
2017-12-10T18:36:49.621Z,97957.13
2017-12-10T18:39:17.194Z,97946.72
2017-12-10T18:41:44.670Z,97939.54
2017-12-10T18:44:12.188Z,97930.57
2017-12-10T18:46:39.787Z,97931.88
2017-12-10T18:49:07.320Z,97937.33
2017-12-10T18:51:34.843Z,97925.36
2017-12-10T18:54:02.318Z,97939.59
2017-12-10T18:56:29.800Z,97941.86
2017-12-10T18:58:57.360Z,97926.56
2017-12-10T19:01:24.847Z,97922.69
2017-12-10T19:03:52.318Z,97924.18
2017-12-10T19:06:19.931Z,97920.26
2017-12-10T19:08:47.404Z,97919.52
2017-12-10T19:11:14.906Z,97907.02
2017-12-10T19:13:42.528Z,97897.09
2017-12-10T19:16:10.002Z,97897.00
2017-12-10T19:18:37.528Z,97892.14
2017-12-10T19:21:05.079Z,97887.80
2017-12-10T19:23:32.619Z,97885.53
2017-12-10T19:26:00.101Z,97880.00
2017-12-10T19:28:27.599Z,97879.88
2017-12-10T19:30:55.079Z,97869.02
2017-12-10T19:33:22.596Z,97865.38
2017-12-10T19:35:50.084Z,97861.79
2017-12-10T19:38:17.563Z,97867.57
2017-12-10T19:40:45.087Z,97860.37
2017-12-10T19:43:12.567Z,97860.70
2017-12-10T19:45:40.043Z,97861.17
2017-12-10T19:48:07.616Z,97861.88
2017-12-10T19:50:35.102Z,97860.27
2017-12-10T19:53:02.650Z,97862.65
2017-12-10T19:55:30.222Z,97851.36
2017-12-10T19:57:57.735Z,97854.52
2017-12-10T20:00:25.281Z,97851.86
2017-12-10T20:02:52.788Z,97850.84
2017-12-10T20:05:20.326Z,97849.88
2017-12-10T20:07:47.912Z,97846.64
2017-12-10T20:10:15.400Z,97850.13
2017-12-10T20:12:42.979Z,97840.82
2017-12-10T20:15:10.458Z,97844.97
2017-12-10T20:17:37.943Z,97843.30
2017-12-10T20:20:05.451Z,97848.61
2017-12-10T20:22:32.960Z,97844.56
2017-12-10T20:25:00.435Z,97836.77
2017-12-10T20:27:28.077Z,97832.72
2017-12-10T20:29:55.638Z,97838.78
2017-12-10T20:32:23.198Z,97837.39
2017-12-10T20:34:50.707Z,97835.29
2017-12-10T20:37:18.317Z,97828.52
2017-12-10T20:39:45.800Z,97829.53
2017-12-10T20:42:13.306Z,97825.89
2017-12-10T20:44:40.788Z,97822.52
2017-12-10T20:47:08.331Z,97816.55
2017-12-10T20:49:35.892Z,97810.73
2017-12-10T20:52:03.387Z,97820.79
2017-12-10T20:54:31.026Z,97820.66
2017-12-10T20:56:58.538Z,97812.84
2017-12-10T20:59:26.063Z,97808.54
2017-12-10T21:01:53.546Z,97803.53
2017-12-10T21:04:21.061Z,97799.64
2017-12-10T21:06:48.587Z,97790.08
2017-12-10T21:09:16.123Z,97786.92
2017-12-10T21:11:43.597Z,97782.05
2017-12-10T21:14:11.166Z,97767.48
2017-12-10T21:16:38.650Z,97780.56
2017-12-10T21:19:06.122Z,97777.72
2017-12-10T21:21:33.627Z,97774.41
2017-12-10T21:24:01.124Z,97783.67
2017-12-10T21:26:28.665Z,97776.74
2017-12-10T21:28:56.238Z,97783.45
2017-12-10T21:31:23.752Z,97784.40
2017-12-10T21:33:51.244Z,97772.12
2017-12-10T21:36:18.791Z,97770.16
2017-12-10T21:38:46.315Z,97768.95
2017-12-10T21:41:13.795Z,97758.83
2017-12-10T21:43:41.315Z,97757.96
2017-12-10T21:46:08.798Z,97759.92
2017-12-10T21:48:36.281Z,97775.95
2017-12-10T21:51:03.782Z,97754.67
2017-12-10T21:53:31.324Z,97753.50
2017-12-10T21:55:58.827Z,97746.47
2017-12-10T21:58:26.310Z,97739.73
2017-12-10T22:00:53.834Z,97743.57
2017-12-10T22:03:21.314Z,97728.34
2017-12-10T22:05:48.804Z,97734.98
2017-12-10T22:08:16.324Z,97710.58
2017-12-10T22:10:43.799Z,97714.50
2017-12-10T22:13:11.276Z,97714.14
2017-12-10T22:15:38.802Z,97708.02
2017-12-10T22:18:06.408Z,97705.06
2017-12-10T22:20:33.883Z,97706.11
2017-12-10T22:23:01.379Z,97697.50
2017-12-10T22:25:28.863Z,97695.47
2017-12-10T22:27:56.415Z,97691.85
2017-12-10T22:30:23.943Z,97694.97
2017-12-10T22:32:51.434Z,97694.91
2017-12-10T22:35:18.919Z,97691.58
2017-12-10T22:37:46.454Z,97683.77
2017-12-10T22:40:13.940Z,97691.67
2017-12-10T22:42:41.418Z,97692.48
2017-12-10T22:45:09.030Z,97691.52
2017-12-10T22:47:36.520Z,97687.83
2017-12-10T22:50:04.038Z,97682.11
2017-12-10T22:52:31.563Z,97680.16
2017-12-10T22:54:59.066Z,97680.44
2017-12-10T22:57:26.543Z,97674.30
2017-12-10T22:59:54.054Z,97679.14
2017-12-10T23:02:21.627Z,97670.00
2017-12-10T23:04:49.138Z,97664.50
2017-12-10T23:07:16.631Z,97658.29
2017-12-10T23:09:44.105Z,97655.75
2017-12-10T23:12:11.619Z,97643.64
2017-12-10T23:14:40.910Z,97643.81
2017-12-10T23:17:08.399Z,97638.41
2017-12-10T23:19:36.778Z,97641.95
2017-12-10T23:22:04.328Z,97630.20
2017-12-10T23:24:31.915Z,97622.73
2017-12-10T23:26:59.475Z,97632.45
2017-12-10T23:29:26.955Z,97638.14
2017-12-10T23:31:54.441Z,97640.48
2017-12-10T23:34:21.962Z,97630.50
2017-12-10T23:36:49.536Z,97633.59
2017-12-10T23:39:17.017Z,97625.60
2017-12-10T23:41:44.539Z,97611.47
2017-12-10T23:44:12.019Z,97606.92
2017-12-10T23:46:39.500Z,97598.44
2017-12-10T23:49:07.020Z,97596.04
2017-12-10T23:51:34.508Z,97598.30
2017-12-10T23:54:02.044Z,97591.23
2017-12-10T23:56:29.572Z,97598.57
2017-12-10T23:58:57.138Z,97593.77
